Dillingham Airport Dillingham US
ICAO: PADL
IATA:
Category: Medium
Scheduled Services:

Elevation: 81 ft
TransAlt. 18000 ft.

Airport Communications:
ATIS:125
AWOS 3:135.55
ANCHORAGE CNTR:132.75
CTAF:123.6
RDO:122.3

PADL Zoom In..

If Map Doesn't Load, Click Here

Runways:

(A) RW 01 length 6400 ft width 150 ft
LOC 111.90 / hdg 11

(B) RW 19 length 6400 ft width 150 ft
LOC 111.90 / hdg 191

Location; PADL
Day. 23 / Time. 09.03 Zulu
* Altimeter: 29.69
* Temperature: 09° c. 48.2°f.
* Wind from: VRB° Speed 05 kn.
Dewpoint: 09° c.
Visibility: 10 Statute Miles.
Clouds: Broken 2600 ft.
Clouds: Broken 3500 ft.
Clouds: Overcast 6000 ft.
Conditions: Light Rain.

PADL 230903Z AUTO VRB05KT 10SM -RA BKN026 BKN035 OVC060 09/09 A2969 RMK AO2 PNO $


Wind From VRB°
Speed 05 kn.

 
 
jpsmedia.com for Web Design worldairports.se 2018   terms of use